Smelterville, Idaho
Current Conditions -  °F | °C
As of 8:00 AM on Tuesday 21 Oct 2014 (Local Time) from KMLP Reporting Station
Light Rain Light Rain  
Wind Chill: 29°   Ceiling: 200
Heat Index: 35°   Visibility: 0.25mi
Dew Point: 35°   Wind: 7mph
Humidity: 100%   Direction: NA
Pressure: 29.87"   Gusts: NA
Location:  47.54°N, 116.18°W
Report Text: KMLP 211500Z AUTO VRB06KT 1/4SM -RA FG VV002 02/02 A2987 RMK AO2 RAB1456 P0000 T00170017
Loading
Personal Weather Stations






























Interactive Weather Map
Tropical Storm Tracking
New forecast layout! Learn more

10-Day Weather Forecast

Advertisements
Track Severe Weather on mobile